Time;durP1;ratioP1;P1;durP2;ratioP2;P2;SDS_P1;SDS_P2;PMS_P1;PMS_P2;Temp;Humidity;BMP_temperature;BMP_pressure;BME280_temperature;BME280_humidity;BME280_pressure;Samples;Min_cycle;Max_cycle;Signal;HPM_P1;HPM_P2
2021/12/15 00:01:58;;;;;;;444.70;417.67;;;10.00;99.90;;;;;;4391816;32;20226;-69
2021/12/15 00:04:25;;;;;;;463.57;435.17;;;9.90;99.90;;;;;;4388510;32;20238;-67
2021/12/15 00:06:52;;;;;;;467.33;439.50;;;10.00;99.90;;;;;;4391512;32;20533;-69
2021/12/15 00:09:19;;;;;;;473.57;444.87;;;10.00;99.90;;;;;;4390200;32;20178;-65
2021/12/15 00:11:46;;;;;;;461.27;432.87;;;10.00;99.90;;;;;;4387898;32;20202;-66
2021/12/15 00:14:19;;;;;;;457.23;429.93;;;10.10;99.90;;;;;;4389865;32;20148;-65
2021/12/15 00:16:48;;;;;;;457.80;430.40;;;10.00;99.90;;;;;;4389894;32;20606;-68
2021/12/15 00:19:16;;;;;;;457.67;430.37;;;10.00;99.90;;;;;;4389489;32;20238;-68
2021/12/15 00:21:43;;;;;;;458.60;431.67;;;10.10;99.90;;;;;;4390060;32;20149;-68
2021/12/15 00:24:10;;;;;;;463.60;435.50;;;10.00;99.90;;;;;;4390903;32;20663;-67
2021/12/15 00:26:38;;;;;;;478.20;450.40;;;10.10;99.90;;;;;;4389895;32;20166;-67
2021/12/15 00:29:06;;;;;;;462.43;435.30;;;10.10;99.90;;;;;;4389803;32;20157;-67
2021/12/15 00:31:37;;;;;;;464.10;436.90;;;10.10;99.90;;;;;;4390193;32;20147;-67
2021/12/15 00:34:07;;;;;;;457.20;430.23;;;10.10;99.90;;;;;;4386679;32;20195;-70
2021/12/15 00:36:36;;;;;;;465.43;437.90;;;10.00;99.90;;;;;;4390193;32;20164;-67
2021/12/15 00:39:05;;;;;;;462.33;435.40;;;10.00;99.90;;;;;;4392663;32;20282;-66
2021/12/15 00:41:32;;;;;;;450.17;424.33;;;10.10;99.90;;;;;;4394343;32;20148;-67
2021/12/15 00:43:59;;;;;;;443.60;418.30;;;10.00;99.90;;;;;;4393270;32;20217;-66
2021/12/15 00:46:26;;;;;;;470.10;443.37;;;10.00;99.90;;;;;;4391882;32;20274;-69
2021/12/15 00:48:53;;;;;;;456.57;430.00;;;10.00;99.90;;;;;;4392591;32;20176;-69
2021/12/15 00:51:20;;;;;;;467.30;440.73;;;10.00;99.90;;;;;;4393963;32;20446;-69
2021/12/15 00:53:48;;;;;;;462.43;435.83;;;10.00;99.90;;;;;;4388739;32;20170;-66
2021/12/15 00:56:15;;;;;;;444.40;418.03;;;10.00;99.90;;;;;;4390319;32;20167;-67
2021/12/15 00:58:41;;;;;;;451.67;425.17;;;9.90;99.90;;;;;;4392386;32;20234;-67
2021/12/15 01:01:08;;;;;;;454.43;427.40;;;9.90;99.90;;;;;;4392035;32;20171;-69
2021/12/15 01:03:35;;;;;;;439.90;414.23;;;10.00;99.90;;;;;;4391538;32;20145;-68
2021/12/15 01:06:07;;;;;;;445.87;420.40;;;10.00;99.90;;;;;;4392171;32;20180;-67
2021/12/15 01:08:38;;;;;;;479.23;451.23;;;9.90;99.90;;;;;;4393932;32;20210;-67
2021/12/15 01:11:15;;;;;;;434.07;408.97;;;9.90;99.90;;;;;;4391718;32;20145;-66
2021/12/15 01:22:03;;;;;;;451.80;425.30;;;9.90;99.90;;;;;;4393758;32;20271;-67
2021/12/15 01:24:30;;;;;;;466.37;439.07;;;9.90;99.90;;;;;;4391244;32;20245;-70
2021/12/15 01:26:58;;;;;;;463.33;436.47;;;9.90;99.90;;;;;;4393572;32;20480;-67
2021/12/15 01:29:25;;;;;;;489.23;460.73;;;9.90;99.90;;;;;;4391777;32;20214;-70
2021/12/15 01:31:52;;;;;;;486.97;458.53;;;9.80;99.90;;;;;;4393134;32;20235;-68
2021/12/15 01:34:19;;;;;;;479.73;451.83;;;9.80;99.90;;;;;;4391896;32;20219;-67
2021/12/15 01:36:46;;;;;;;480.90;453.03;;;9.80;99.90;;;;;;4391428;32;20274;-69
2021/12/15 01:39:13;;;;;;;479.13;450.93;;;9.80;99.90;;;;;;4392465;32;20145;-67
2021/12/15 01:41:40;;;;;;;479.30;450.73;;;9.80;99.90;;;;;;4391766;32;20163;-67
2021/12/15 01:46:59;;;;;;;482.10;454.00;;;9.80;99.90;;;;;;4382219;32;20182;-68
2021/12/15 01:49:37;;;;;;;469.00;441.10;;;9.80;99.90;;;;;;4392579;32;20547;-67
2021/12/15 01:52:08;;;;;;;479.17;450.80;;;9.80;99.90;;;;;;4392880;32;20236;-67
2021/12/15 01:54:42;;;;;;;473.73;446.50;;;9.80;99.90;;;;;;4388522;32;20224;-66
2021/12/15 01:57:11;;;;;;;470.83;443.43;;;9.90;99.90;;;;;;4391675;32;20156;-67
2021/12/15 01:59:40;;;;;;;467.20;439.70;;;9.80;99.90;;;;;;4391374;32;20565;-67
2021/12/15 02:02:07;;;;;;;463.90;436.43;;;9.80;99.90;;;;;;4392984;32;20645;-67
2021/12/15 02:04:35;;;;;;;470.43;443.47;;;9.80;99.90;;;;;;4384171;32;20158;-67
2021/12/15 02:07:04;;;;;;;469.10;441.17;;;9.80;99.90;;;;;;4392518;32;20171;-68
2021/12/15 02:10:01;;;;;;;480.10;451.90;;;9.80;99.90;;;;;;4392404;32;20149;-67
2021/12/15 02:12:33;;;;;;;473.70;445.73;;;9.90;99.90;;;;;;4390432;32;20140;-68
2021/12/15 02:15:05;;;;;;;490.03;460.93;;;9.80;99.90;;;;;;4391181;32;20167;-68
2021/12/15 02:17:31;;;;;;;465.53;437.53;;;9.80;99.90;;;;;;4390526;32;20146;-67
2021/12/15 02:19:58;;;;;;;475.43;446.90;;;9.80;99.90;;;;;;4387604;32;20238;-68
2021/12/15 02:22:28;;;;;;;487.53;457.83;;;9.90;99.90;;;;;;4391205;32;20588;-67
2021/12/15 02:24:55;;;;;;;471.60;444.10;;;9.80;99.90;;;;;;4390550;32;20156;-67
2021/12/15 02:27:31;;;;;;;470.70;442.17;;;9.80;99.90;;;;;;4391087;32;20163;-67
2021/12/15 02:30:05;;;;;;;469.60;441.13;;;9.80;99.90;;;;;;4391190;32;20495;-67
2021/12/15 02:32:44;;;;;;;479.23;451.17;;;9.80;99.90;;;;;;4391131;32;20177;-67
2021/12/15 02:37:56;;;;;;;475.93;448.13;;;9.90;99.90;;;;;;4392492;32;20170;-68
2021/12/15 02:40:23;;;;;;;469.87;442.53;;;9.90;99.90;;;;;;4390289;32;20202;-66
2021/12/15 02:42:51;;;;;;;481.60;453.03;;;9.90;99.90;;;;;;4390700;32;20517;-66
2021/12/15 02:45:22;;;;;;;480.77;452.40;;;9.90;99.90;;;;;;4391018;32;20470;-69
2021/12/15 02:47:49;;;;;;;454.97;427.90;;;9.90;99.90;;;;;;4386417;32;20173;-67
2021/12/15 02:50:20;;;;;;;469.77;442.03;;;9.90;99.90;;;;;;4390784;32;20696;-67
2021/12/15 02:52:47;;;;;;;451.23;424.87;;;9.90;99.90;;;;;;4390479;32;20166;-70
2021/12/15 02:55:16;;;;;;;448.03;421.47;;;9.80;99.90;;;;;;4391046;32;20227;-70
2021/12/15 02:57:44;;;;;;;479.47;451.00;;;9.80;99.90;;;;;;4392487;32;20172;-67
2021/12/15 03:00:22;;;;;;;464.40;436.97;;;9.90;99.90;;;;;;4390661;32;20156;-67
2021/12/15 03:03:32;;;;;;;459.43;433.10;;;9.80;99.90;;;;;;4390509;32;20228;-69
2021/12/15 03:06:04;;;;;;;445.33;419.10;;;9.80;99.90;;;;;;4391980;32;20233;-67
2021/12/15 03:08:49;;;;;;;449.13;423.07;;;9.90;99.90;;;;;;4390538;32;20169;-67
2021/12/15 03:16:48;;;;;;;445.23;419.63;;;9.90;99.90;;;;;;4377357;32;20226;-71
2021/12/15 03:19:15;;;;;;;448.37;421.30;;;10.00;99.90;;;;;;4385247;32;20181;-68
2021/12/15 03:21:43;;;;;;;443.40;418.13;;;9.90;99.90;;;;;;4390387;32;20645;-68
2021/12/15 03:24:15;;;;;;;461.03;434.17;;;9.90;99.90;;;;;;4390035;32;20251;-69
2021/12/15 03:26:51;;;;;;;462.67;435.53;;;9.80;99.90;;;;;;4391159;32;20227;-67
2021/12/15 03:35:02;;;;;;;454.03;428.23;;;9.80;99.90;;;;;;4380459;32;20641;-68
2021/12/15 03:37:32;;;;;;;445.33;419.47;;;9.80;99.90;;;;;;4384010;32;20598;-68
2021/12/15 03:40:02;;;;;;;458.33;432.13;;;9.80;99.90;;;;;;4389544;32;20545;-69
2021/12/15 03:42:34;;;;;;;467.47;440.50;;;9.80;99.90;;;;;;4389489;32;20591;-67
2021/12/15 03:45:03;;;;;;;451.03;424.60;;;9.80;99.90;;;;;;4391986;32;20638;-68
2021/12/15 03:47:32;;;;;;;465.47;438.73;;;9.80;99.90;;;;;;4392088;32;20192;-67
2021/12/15 03:50:00;;;;;;;472.93;444.63;;;9.80;99.90;;;;;;4390596;32;20239;-69
2021/12/15 03:52:28;;;;;;;478.37;450.03;;;9.80;99.90;;;;;;4390468;32;20164;-68
2021/12/15 03:54:54;;;;;;;473.37;445.43;;;9.80;99.90;;;;;;4390140;32;20189;-67
2021/12/15 03:57:21;;;;;;;473.63;445.83;;;9.90;99.90;;;;;;4390055;32;20175;-68
2021/12/15 03:59:50;;;;;;;466.33;438.80;;;9.90;99.90;;;;;;4391900;32;20575;-68
2021/12/15 04:02:19;;;;;;;449.53;422.53;;;9.90;99.90;;;;;;4390692;32;20866;-69
2021/12/15 04:04:48;;;;;;;444.03;418.47;;;9.90;99.90;;;;;;4391903;32;20207;-68
2021/12/15 04:07:16;;;;;;;495.33;466.03;;;9.80;99.90;;;;;;4390036;32;20173;-68
2021/12/15 04:09:44;;;;;;;479.10;451.27;;;9.80;99.90;;;;;;4390080;32;20238;-67
2021/12/15 04:12:12;;;;;;;473.50;445.23;;;9.90;99.90;;;;;;4392813;32;20230;-67
2021/12/15 04:14:45;;;;;;;468.17;440.67;;;9.90;99.90;;;;;;4394811;32;20140;-68
2021/12/15 04:17:26;;;;;;;458.50;431.40;;;9.90;99.90;;;;;;4392728;32;20160;-67
2021/12/15 04:19:56;;;;;;;445.80;419.83;;;9.80;99.90;;;;;;4394674;32;20178;-67
2021/12/15 04:22:25;;;;;;;467.33;439.97;;;9.90;99.90;;;;;;4392595;32;20231;-68
2021/12/15 04:24:53;;;;;;;492.50;463.73;;;9.90;99.90;;;;;;4392657;32;20186;-69
2021/12/15 04:27:21;;;;;;;490.87;462.43;;;9.90;99.90;;;;;;4395195;32;20484;-66
2021/12/15 04:29:49;;;;;;;462.70;434.97;;;9.90;99.90;;;;;;4399422;32;20163;-66
2021/12/15 04:32:23;;;;;;;454.63;428.47;;;10.00;99.90;;;;;;4395985;32;20155;-69
2021/12/15 04:34:50;;;;;;;448.43;422.23;;;10.00;99.90;;;;;;4399397;32;20234;-66
2021/12/15 04:37:17;;;;;;;460.53;434.23;;;9.90;99.90;;;;;;4388469;32;20260;-67
2021/12/15 04:39:43;;;;;;;451.97;425.37;;;9.90;99.90;;;;;;4392384;32;20166;-67
2021/12/15 04:42:15;;;;;;;461.40;434.57;;;9.90;99.90;;;;;;4399732;32;20148;-69
2021/12/15 04:44:41;;;;;;;444.97;418.47;;;9.90;99.90;;;;;;4389564;32;20193;-69
2021/12/15 04:47:11;;;;;;;455.23;428.40;;;9.90;99.90;;;;;;4398976;32;20500;-68
2021/12/15 04:49:42;;;;;;;449.23;423.07;;;9.90;99.90;;;;;;4397394;32;20519;-68
2021/12/15 04:52:12;;;;;;;477.50;450.20;;;9.90;99.90;;;;;;4395398;32;20484;-68
2021/12/15 04:54:39;;;;;;;478.77;450.90;;;9.90;99.90;;;;;;4386536;32;20153;-68
2021/12/15 04:57:07;;;;;;;475.97;447.83;;;9.90;99.90;;;;;;4392703;32;20198;-69
2021/12/15 04:59:34;;;;;;;476.67;447.77;;;9.90;99.90;;;;;;4392266;32;20183;-67
2021/12/15 05:02:01;;;;;;;485.10;456.53;;;9.80;99.90;;;;;;4397518;32;20149;-66
2021/12/15 05:04:29;;;;;;;490.00;462.03;;;9.80;99.90;;;;;;4394032;32;20602;-67
2021/12/15 05:06:57;;;;;;;474.10;446.20;;;9.90;99.90;;;;;;4391670;32;20191;-67
2021/12/15 05:09:25;;;;;;;465.50;437.83;;;9.90;99.90;;;;;;4398697;32;20222;-67
2021/12/15 05:11:56;;;;;;;477.67;449.60;;;9.90;99.90;;;;;;4397804;32;20143;-69
2021/12/15 05:14:25;;;;;;;454.50;427.73;;;10.00;99.90;;;;;;4400490;32;20325;-67
2021/12/15 05:16:56;;;;;;;459.63;433.20;;;9.90;99.90;;;;;;4391652;32;20167;-67
2021/12/15 05:19:25;;;;;;;455.77;428.67;;;9.90;99.90;;;;;;4387885;32;20183;-68
2021/12/15 05:21:52;;;;;;;458.30;431.33;;;9.90;99.90;;;;;;4391153;32;20589;-67
2021/12/15 05:24:31;;;;;;;463.17;436.37;;;9.90;99.90;;;;;;4397714;32;20489;-68
2021/12/15 05:27:00;;;;;;;454.50;427.53;;;10.00;99.90;;;;;;4392755;32;20615;-67
2021/12/15 05:29:27;;;;;;;444.83;418.77;;;9.90;99.90;;;;;;4398643;32;20218;-67
2021/12/15 05:31:56;;;;;;;457.50;429.73;;;10.00;99.90;;;;;;4398706;32;20151;-66
2021/12/15 05:34:27;;;;;;;458.43;431.37;;;9.90;99.90;;;;;;4392363;32;20218;-66
2021/12/15 05:36:54;;;;;;;445.43;419.43;;;9.90;99.90;;;;;;4398589;32;20206;-67
2021/12/15 05:39:24;;;;;;;477.97;449.23;;;10.00;99.90;;;;;;4395159;32;20175;-69
2021/12/15 05:41:52;;;;;;;447.23;420.93;;;10.00;99.90;;;;;;4399842;32;20562;-67
2021/12/15 05:44:19;;;;;;;460.73;433.00;;;10.00;99.90;;;;;;4395054;32;20223;-67
2021/12/15 05:46:46;;;;;;;457.33;430.20;;;10.00;99.90;;;;;;4399385;32;20193;-67
2021/12/15 05:49:13;;;;;;;444.00;416.97;;;10.00;99.90;;;;;;4391561;32;20239;-65
2021/12/15 05:51:40;;;;;;;450.77;424.13;;;10.00;99.90;;;;;;4393164;32;20674;-66
2021/12/15 05:54:09;;;;;;;437.43;411.63;;;10.00;99.90;;;;;;4396792;32;20567;-67
2021/12/15 05:56:37;;;;;;;429.40;403.30;;;10.00;99.90;;;;;;4396104;32;20205;-66
2021/12/15 05:59:05;;;;;;;449.57;421.70;;;10.00;99.90;;;;;;4390842;32;20227;-66
2021/12/15 06:01:33;;;;;;;454.40;427.17;;;10.00;99.90;;;;;;4391005;32;20155;-67
2021/12/15 06:04:00;;;;;;;452.03;424.77;;;10.00;99.90;;;;;;4386152;32;20170;-69
2021/12/15 06:06:27;;;;;;;450.40;423.10;;;10.00;99.90;;;;;;4398361;32;20256;-68
2021/12/15 06:08:54;;;;;;;461.77;433.47;;;10.00;99.90;;;;;;4391751;32;20199;-71
2021/12/15 06:11:21;;;;;;;447.87;420.17;;;10.00;99.90;;;;;;4396444;32;20170;-66
2021/12/15 06:13:50;;;;;;;454.20;426.70;;;10.00;99.90;;;;;;4385795;32;20171;-67
2021/12/15 06:16:22;;;;;;;455.10;427.93;;;10.00;99.90;;;;;;4390494;32;20262;-66
2021/12/15 06:18:52;;;;;;;446.53;419.63;;;10.10;99.90;;;;;;4389337;32;20155;-67
2021/12/15 06:21:21;;;;;;;461.60;434.87;;;10.00;99.90;;;;;;4388577;32;20142;-67
2021/12/15 06:23:50;;;;;;;453.50;426.23;;;10.10;99.90;;;;;;4390320;32;20191;-67
2021/12/15 06:26:18;;;;;;;447.73;420.33;;;10.10;99.90;;;;;;4388251;32;20242;-68
2021/12/15 06:28:46;;;;;;;442.00;415.10;;;10.10;99.90;;;;;;4391431;32;20593;-67
2021/12/15 06:31:17;;;;;;;442.00;414.50;;;10.10;99.90;;;;;;4391191;32;20585;-67
2021/12/15 06:33:45;;;;;;;456.50;428.87;;;10.10;99.90;;;;;;4389014;32;20161;-67
2021/12/15 06:36:14;;;;;;;455.63;428.93;;;10.10;99.90;;;;;;4389884;32;20175;-66
2021/12/15 06:38:45;;;;;;;445.27;418.27;;;10.10;99.90;;;;;;4390144;32;20152;-68
2021/12/15 06:41:13;;;;;;;449.53;421.93;;;10.10;99.90;;;;;;4389653;32;20152;-68
2021/12/15 06:43:43;;;;;;;450.27;422.27;;;10.10;99.90;;;;;;4391685;32;20485;-67
2021/12/15 06:46:29;;;;;;;444.43;417.40;;;10.10;99.90;;;;;;4387410;32;20691;-69
2021/12/15 06:57:33;;;;;;;438.70;412.03;;;10.10;99.90;;;;;;4387941;32;20481;-67
2021/12/15 07:00:06;;;;;;;443.80;415.77;;;10.10;99.90;;;;;;4387388;32;20152;-69
2021/12/15 07:02:36;;;;;;;454.10;426.57;;;10.10;99.90;;;;;;4375500;32;20230;-69
2021/12/15 07:05:07;;;;;;;434.83;408.20;;;10.20;99.90;;;;;;4383967;32;20178;-68
2021/12/15 07:07:34;;;;;;;443.37;415.93;;;10.20;99.90;;;;;;4385566;32;20282;-67
2021/12/15 07:10:01;;;;;;;441.00;413.93;;;10.20;99.90;;;;;;4389399;32;20171;-69
2021/12/15 07:12:30;;;;;;;442.80;416.73;;;10.20;99.90;;;;;;4379117;32;20211;-70
2021/12/15 07:14:57;;;;;;;444.47;417.77;;;10.20;99.90;;;;;;4386042;32;20661;-66
2021/12/15 07:17:25;;;;;;;450.67;423.77;;;10.20;99.90;;;;;;4386045;32;20176;-65
2021/12/15 07:20:06;;;;;;;439.13;412.87;;;10.30;99.90;;;;;;4383615;32;20212;-67
2021/12/15 07:22:43;;;;;;;435.93;409.10;;;10.20;99.90;;;;;;4382843;32;20146;-65
2021/12/15 07:25:12;;;;;;;435.63;409.33;;;10.20;99.90;;;;;;4384619;32;20184;-66
2021/12/15 07:27:42;;;;;;;446.20;418.70;;;10.20;99.90;;;;;;4380523;32;20258;-69
2021/12/15 07:30:11;;;;;;;455.93;427.17;;;10.20;99.90;;;;;;4383383;32;20207;-67
2021/12/15 07:32:39;;;;;;;449.90;422.73;;;10.20;99.90;;;;;;4391837;32;20249;-67
2021/12/15 07:35:20;;;;;;;465.00;436.77;;;10.20;99.90;;;;;;4383271;32;20162;-65
2021/12/15 07:37:49;;;;;;;446.40;419.63;;;10.30;99.90;;;;;;4379248;32;20163;-67
2021/12/15 07:40:20;;;;;;;443.30;417.17;;;10.30;99.90;;;;;;4387738;32;20168;-65
2021/12/15 07:43:05;;;;;;;453.87;426.70;;;10.30;99.90;;;;;;4395045;32;20148;-68
2021/12/15 07:45:35;;;;;;;444.57;417.73;;;10.30;99.90;;;;;;4378936;32;20637;-66
2021/12/15 07:48:03;;;;;;;452.30;424.67;;;10.30;99.90;;;;;;4394666;32;20152;-67
2021/12/15 07:50:31;;;;;;;436.20;409.93;;;10.30;99.90;;;;;;4381809;32;20166;-65
2021/12/15 07:53:00;;;;;;;446.00;418.77;;;10.30;99.90;;;;;;4380500;32;20203;-69
2021/12/15 07:55:29;;;;;;;447.27;419.30;;;10.30;99.90;;;;;;4389280;32;20213;-68
2021/12/15 07:57:56;;;;;;;445.87;418.27;;;10.30;99.90;;;;;;4375261;32;20170;-66
2021/12/15 08:00:26;;;;;;;448.30;420.53;;;10.30;99.90;;;;;;4386529;32;20173;-65
2021/12/15 08:02:54;;;;;;;442.13;415.23;;;10.20;99.90;;;;;;4383280;32;20171;-66
2021/12/15 08:05:22;;;;;;;436.73;409.80;;;10.20;99.90;;;;;;4389133;32;20178;-67
2021/12/15 08:07:49;;;;;;;461.07;432.70;;;10.30;99.90;;;;;;4388687;32;20148;-67
2021/12/15 08:10:18;;;;;;;458.03;430.00;;;10.30;99.90;;;;;;4390170;32;20143;-66
2021/12/15 08:12:46;;;;;;;454.40;426.53;;;10.30;99.90;;;;;;4386105;32;20150;-65
2021/12/15 08:15:16;;;;;;;449.20;421.37;;;10.30;99.90;;;;;;4393371;32;20174;-67
2021/12/15 08:17:46;;;;;;;448.00;421.20;;;10.30;99.90;;;;;;4387386;32;20149;-69
2021/12/15 08:20:13;;;;;;;461.73;434.40;;;10.30;99.90;;;;;;4381479;32;20512;-67
2021/12/15 08:22:41;;;;;;;452.17;425.03;;;10.30;99.90;;;;;;4387205;32;20153;-67
2021/12/15 08:25:10;;;;;;;442.27;414.43;;;10.40;99.90;;;;;;4387819;32;20156;-67
2021/12/15 08:27:39;;;;;;;446.10;419.97;;;10.40;99.90;;;;;;4385620;32;20170;-65
2021/12/15 08:30:08;;;;;;;437.97;410.30;;;10.40;99.90;;;;;;4388530;32;20164;-67
2021/12/15 08:32:35;;;;;;;444.00;416.00;;;10.40;99.90;;;;;;4390177;32;20171;-66
2021/12/15 08:35:03;;;;;;;446.63;418.97;;;10.40;99.90;;;;;;4381754;32;20155;-68
2021/12/15 08:37:30;;;;;;;446.40;419.73;;;10.40;99.90;;;;;;4381390;32;20197;-68
2021/12/15 08:39:57;;;;;;;456.13;429.77;;;10.40;99.90;;;;;;4389387;32;20198;-67
2021/12/15 08:42:24;;;;;;;454.50;426.83;;;10.50;99.90;;;;;;4386378;32;20240;-66
2021/12/15 08:44:52;;;;;;;454.83;428.13;;;10.50;99.90;;;;;;4382695;32;20499;-66
2021/12/15 08:47:19;;;;;;;431.83;405.10;;;10.50;99.90;;;;;;4389581;32;20195;-65
2021/12/15 08:49:46;;;;;;;437.13;411.57;;;10.50;99.90;;;;;;4384310;32;20144;-66
2021/12/15 08:52:13;;;;;;;440.70;415.60;;;10.50;99.90;;;;;;4384388;32;20170;-66
2021/12/15 08:54:40;;;;;;;430.60;405.53;;;10.50;99.90;;;;;;4389832;32;20174;-66
2021/12/15 08:57:10;;;;;;;445.43;418.90;;;10.50;99.90;;;;;;4378717;32;20156;-67
2021/12/15 08:59:37;;;;;;;421.23;396.10;;;10.60;99.90;;;;;;4388724;32;20173;-66
2021/12/15 09:02:06;;;;;;;421.30;396.03;;;10.60;99.90;;;;;;4389568;32;20176;-68
2021/12/15 09:04:33;;;;;;;422.70;398.23;;;10.70;99.90;;;;;;4391803;32;20224;-67
2021/12/15 09:07:00;;;;;;;419.80;394.43;;;10.60;99.90;;;;;;4387909;32;20156;-66
2021/12/15 09:09:27;;;;;;;426.13;400.10;;;10.60;99.90;;;;;;4390098;32;20171;-66
2021/12/15 09:11:55;;;;;;;426.90;401.40;;;10.70;99.90;;;;;;4386602;32;20650;-64
2021/12/15 09:14:23;;;;;;;416.17;391.67;;;10.60;99.90;;;;;;4388190;32;20480;-66
2021/12/15 09:16:54;;;;;;;426.87;400.50;;;10.70;99.90;;;;;;4390407;32;20492;-66
2021/12/15 09:19:23;;;;;;;429.87;404.40;;;10.70;99.90;;;;;;4386526;32;20179;-66
2021/12/15 09:21:52;;;;;;;422.27;397.40;;;10.80;99.90;;;;;;4387034;32;20151;-66
2021/12/15 09:24:19;;;;;;;452.80;426.23;;;10.80;99.90;;;;;;4384106;32;20626;-66
2021/12/15 09:26:47;;;;;;;445.97;419.57;;;10.80;99.90;;;;;;4385117;32;20177;-68
2021/12/15 09:29:13;;;;;;;397.73;374.03;;;10.90;99.90;;;;;;4381769;32;20167;-66
2021/12/15 09:31:40;;;;;;;408.07;384.97;;;10.90;99.90;;;;;;4392069;32;20188;-66
2021/12/15 09:34:10;;;;;;;400.67;377.93;;;10.90;99.90;;;;;;4391462;32;20171;-67
2021/12/15 09:36:38;;;;;;;402.20;378.40;;;10.90;99.90;;;;;;4390656;32;20213;-65
2021/12/15 09:39:10;;;;;;;404.43;381.13;;;10.90;99.90;;;;;;4384985;32;20185;-66
2021/12/15 09:41:38;;;;;;;420.83;397.50;;;10.90;99.90;;;;;;4385700;32;20188;-67
2021/12/15 09:44:09;;;;;;;414.43;390.93;;;11.00;99.90;;;;;;4389101;32;20163;-66
2021/12/15 09:46:51;;;;;;;396.83;374.00;;;11.00;99.90;;;;;;4387778;32;20163;-66
2021/12/15 10:02:00;;;;;;;379.43;358.47;;;11.20;99.90;;;;;;4354737;32;20173;-65
2021/12/15 10:03:35;;;;;;;366.93;346.87;;;11.40;99.90;;;;;;4354604;32;20243;-67
2021/12/15 10:06:18;;;;;;;342.73;323.47;;;11.40;99.90;;;;;;4351221;33;20164;-67
2021/12/15 10:11:47;;;;;;;356.97;337.83;;;11.50;99.90;;;;;;4348246;32;20228;-66
2021/12/15 10:17:37;;;;;;;346.70;328.77;;;11.40;99.90;;;;;;4355979;32;20167;-65
2021/12/15 10:20:07;;;;;;;322.53;305.60;;;11.50;99.90;;;;;;4349595;33;20184;-65
2021/12/15 10:22:39;;;;;;;306.47;290.33;;;11.50;99.90;;;;;;4359764;32;20274;-68
2021/12/15 10:25:12;;;;;;;312.70;296.17;;;11.50;99.90;;;;;;4354824;32;1692143;-64
2021/12/15 10:27:43;;;;;;;299.03;282.93;;;11.50;99.90;;;;;;4393898;32;20617;-65
2021/12/15 10:30:16;;;;;;;300.50;284.90;;;11.50;99.90;;;;;;4399904;32;20195;-65
2021/12/15 10:32:45;;;;;;;279.57;264.57;;;11.50;99.90;;;;;;4398544;32;20210;-67
2021/12/15 10:35:15;;;;;;;308.70;293.07;;;11.60;99.90;;;;;;4402425;32;20559;-65
2021/12/15 10:37:42;;;;;;;253.03;239.47;;;11.70;99.90;;;;;;4397177;32;20190;-66
2021/12/15 10:40:15;;;;;;;239.00;226.57;;;11.80;99.90;;;;;;4393414;32;20219;-67
2021/12/15 10:42:42;;;;;;;215.40;203.63;;;11.90;99.90;;;;;;4398038;32;20223;-68
2021/12/15 10:45:12;;;;;;;203.67;192.67;;;11.80;99.90;;;;;;4400578;32;20140;-67
2021/12/15 10:47:45;;;;;;;196.57;185.27;;;11.90;99.90;;;;;;4403782;32;20167;-68
2021/12/15 10:50:14;;;;;;;213.43;201.73;;;11.80;99.90;;;;;;4402474;32;20148;-66
2021/12/15 10:52:51;;;;;;;209.40;198.17;;;11.70;99.90;;;;;;4403738;32;20148;-67
2021/12/15 10:55:19;;;;;;;233.37;220.33;;;11.60;99.90;;;;;;4395003;32;20625;-68
2021/12/15 10:57:46;;;;;;;221.17;208.93;;;11.60;99.90;;;;;;4398030;32;20576;-67
2021/12/15 11:00:19;;;;;;;223.70;211.77;;;11.50;99.90;;;;;;4397586;32;20568;-68
2021/12/15 11:02:46;;;;;;;239.97;227.13;;;11.50;99.90;;;;;;4393181;32;20164;-67
2021/12/15 11:05:15;;;;;;;248.67;236.20;;;11.50;99.90;;;;;;4396050;32;20520;-67
2021/12/15 11:07:46;;;;;;;214.70;202.63;;;11.40;99.90;;;;;;4386306;32;21089;-68
2021/12/15 11:10:15;;;;;;;220.23;208.23;;;11.40;99.90;;;;;;4392660;32;20170;-67
2021/12/15 11:12:45;;;;;;;237.93;224.97;;;11.40;99.90;;;;;;4391885;32;20219;-67
2021/12/15 11:15:15;;;;;;;237.40;225.20;;;11.50;99.90;;;;;;4398244;32;20218;-68
2021/12/15 11:17:43;;;;;;;205.63;194.90;;;11.60;99.90;;;;;;4401169;32;20223;-69
2021/12/15 11:20:14;;;;;;;190.10;179.57;;;11.70;99.90;;;;;;4400292;32;20205;-68
2021/12/15 11:22:49;;;;;;;214.23;203.07;;;11.60;99.90;;;;;;4400351;32;20173;-67
2021/12/15 11:25:35;;;;;;;209.83;198.67;;;11.60;99.90;;;;;;4377421;32;20152;-70
2021/12/15 11:28:07;;;;;;;205.00;194.13;;;11.60;99.90;;;;;;4394066;32;20443;-68
2021/12/15 11:30:38;;;;;;;195.13;184.50;;;11.70;99.90;;;;;;4391856;32;20579;-67
2021/12/15 11:33:08;;;;;;;203.40;192.50;;;11.70;99.90;;;;;;4391164;32;20159;-68
2021/12/15 11:35:38;;;;;;;185.57;175.57;;;11.70;99.90;;;;;;4390648;32;20182;-68
2021/12/15 11:38:14;;;;;;;187.73;177.63;;;11.90;99.90;;;;;;4396430;32;20163;-67
2021/12/15 11:40:46;;;;;;;196.20;185.93;;;12.00;99.90;;;;;;4390392;32;20162;-67
2021/12/15 11:43:39;;;;;;;182.30;172.57;;;12.00;99.90;;;;;;4382504;32;20239;-68
2021/12/15 11:46:20;;;;;;;183.33;173.87;;;11.90;99.90;;;;;;4391798;32;20160;-69
2021/12/15 11:48:50;;;;;;;185.47;175.80;;;12.00;99.90;;;;;;4395131;32;20171;-67
2021/12/15 11:51:39;;;;;;;182.57;172.87;;;11.90;99.90;;;;;;4381131;32;20144;-67
2021/12/15 11:54:16;;;;;;;178.43;169.20;;;12.00;99.90;;;;;;4385123;32;20210;-66
2021/12/15 11:56:43;;;;;;;173.77;164.37;;;12.00;99.90;;;;;;4390664;32;20170;-70
2021/12/15 11:59:22;;;;;;;172.93;163.77;;;12.10;99.90;;;;;;4385435;32;20148;-68
2021/12/15 12:02:08;;;;;;;168.77;159.37;;;12.10;99.90;;;;;;4375769;32;20159;-66
2021/12/15 12:04:40;;;;;;;165.47;156.10;;;12.20;99.90;;;;;;4390140;32;20148;-67
2021/12/15 12:07:21;;;;;;;157.70;148.80;;;12.20;99.90;;;;;;4378025;32;20149;-68
2021/12/15 12:09:51;;;;;;;150.67;142.30;;;12.10;99.90;;;;;;4378824;32;20245;-68
2021/12/15 12:12:22;;;;;;;146.60;138.57;;;12.20;99.90;;;;;;4376904;32;20140;-67
2021/12/15 12:14:50;;;;;;;138.73;131.00;;;12.20;99.90;;;;;;4381715;32;20170;-67
2021/12/15 12:17:19;;;;;;;121.27;114.27;;;12.20;99.90;;;;;;4378411;32;20565;-68
2021/12/15 12:19:56;;;;;;;121.40;114.90;;;12.30;99.90;;;;;;4382865;32;20168;-68
2021/12/15 12:22:26;;;;;;;117.53;110.53;;;12.20;99.90;;;;;;4383876;32;20140;-67
2021/12/15 12:24:55;;;;;;;103.50;97.60;;;12.30;99.90;;;;;;4398534;32;20139;-67
2021/12/15 12:27:23;;;;;;;107.40;101.50;;;12.20;99.90;;;;;;4393895;32;20241;-67
2021/12/15 12:29:52;;;;;;;95.67;90.10;;;12.20;99.90;;;;;;4405271;32;20251;-67
2021/12/15 12:32:19;;;;;;;100.07;94.07;;;12.20;99.90;;;;;;4396928;32;20518;-66
2021/12/15 12:34:47;;;;;;;95.00;89.73;;;12.20;99.90;;;;;;4403394;32;20159;-67
2021/12/15 12:37:15;;;;;;;91.10;85.97;;;12.30;99.90;;;;;;4403593;32;20160;-66
2021/12/15 12:39:43;;;;;;;84.73;79.93;;;12.10;99.90;;;;;;4402637;32;20229;-67
2021/12/15 12:42:11;;;;;;;86.20;81.03;;;12.10;99.90;;;;;;4400387;32;20174;-67
2021/12/15 12:44:43;;;;;;;85.63;80.80;;;12.10;99.90;;;;;;4399114;32;21632;-67
2021/12/15 12:47:27;;;;;;;96.27;91.47;;;12.10;99.90;;;;;;4394531;32;20152;-66
2021/12/15 13:01:22;;;;;;;88.60;83.23;;;12.20;99.90;;;;;;4401346;32;20281;-67
2021/12/15 13:03:55;;;;;;;83.07;77.93;;;12.20;99.90;;;;;;4397819;32;20476;-67
2021/12/15 13:06:25;;;;;;;87.20;81.97;;;12.20;99.90;;;;;;4400275;32;20213;-66
2021/12/15 13:08:55;;;;;;;85.30;80.57;;;12.20;99.90;;;;;;4396286;32;20175;-68
2021/12/15 13:11:34;;;;;;;88.27;83.17;;;12.20;99.90;;;;;;4395146;32;20258;-66
2021/12/15 13:14:05;;;;;;;83.30;78.70;;;12.20;99.90;;;;;;4395534;32;20139;-66
2021/12/15 13:16:38;;;;;;;78.30;73.73;;;12.20;99.90;;;;;;4397812;32;20245;-66
2021/12/15 13:19:19;;;;;;;80.53;75.80;;;12.00;99.90;;;;;;4395567;32;20140;-66
2021/12/15 13:21:55;;;;;;;88.53;83.57;;;11.90;99.90;;;;;;4395486;32;20218;-68
2021/12/15 13:30:45;;;;;;;92.20;87.30;;;11.70;99.90;;;;;;4400148;32;20162;-67
2021/12/15 13:33:16;;;;;;;97.10;91.83;;;11.80;99.90;;;;;;4404534;32;20179;-67
2021/12/15 13:35:49;;;;;;;95.20;89.87;;;11.70;99.90;;;;;;4400860;32;20144;-66
2021/12/15 13:38:20;;;;;;;93.50;88.33;;;11.70;99.90;;;;;;4401642;32;20205;-66